createdAt,value
2024-04-22T00:01:40.599Z,100955.01
2024-04-22T00:04:08.567Z,100953.28
2024-04-22T00:06:36.908Z,100953.20
2024-04-22T00:09:04.922Z,100951.12
2024-04-22T00:11:32.907Z,100951.84
2024-04-22T00:14:01.432Z,100956.20
2024-04-22T00:16:29.454Z,100954.98
2024-04-22T00:18:57.324Z,100952.41
2024-04-22T00:21:25.753Z,100950.42
2024-04-22T00:23:53.538Z,100954.14
2024-04-22T00:26:21.413Z,100953.33
2024-04-22T00:28:49.199Z,100954.35
2024-04-22T00:31:17.038Z,100959.69
2024-04-22T00:33:44.938Z,100957.07
2024-04-22T00:36:12.766Z,100960.53
2024-04-22T00:38:40.560Z,100961.43
2024-04-22T00:41:08.353Z,100963.90
2024-04-22T00:43:36.342Z,100961.87
2024-04-22T00:46:05.099Z,100963.17
2024-04-22T00:48:33.143Z,100965.39
2024-04-22T00:51:00.974Z,100973.03
2024-04-22T00:53:28.745Z,100973.86
2024-04-22T00:55:56.627Z,100979.48
2024-04-22T00:58:24.646Z,100983.80
2024-04-22T01:00:52.640Z,100981.73
2024-04-22T01:03:20.625Z,100981.86
2024-04-22T01:05:48.748Z,100981.39
2024-04-22T01:08:16.867Z,100982.99
2024-04-22T01:10:45.286Z,100981.88
2024-04-22T01:13:13.675Z,100981.84
2024-04-22T01:15:41.605Z,100984.34
2024-04-22T01:18:09.627Z,100984.80
2024-04-22T01:20:37.597Z,100983.05
2024-04-22T01:23:06.299Z,100986.61
2024-04-22T01:25:34.181Z,100985.89
2024-04-22T01:28:02.156Z,100987.65
2024-04-22T01:30:29.940Z,100980.23
2024-04-22T01:32:57.907Z,100976.11
2024-04-22T01:35:25.890Z,100973.97
2024-04-22T01:37:53.737Z,100971.24
2024-04-22T01:40:21.575Z,100967.16
2024-04-22T01:42:49.444Z,100963.16
2024-04-22T01:45:17.254Z,100960.00
2024-04-22T01:47:45.836Z,100957.46
2024-04-22T01:50:13.807Z,100958.66
2024-04-22T01:52:41.649Z,100960.45
2024-04-22T01:55:11.478Z,100964.23
2024-04-22T01:57:39.672Z,100968.73
2024-04-22T02:00:08.282Z,100971.65
2024-04-22T02:02:42.350Z,100978.26
2024-04-22T02:05:10.193Z,100982.34
2024-04-22T02:07:38.144Z,100977.30
2024-04-22T02:10:17.225Z,100972.32
2024-04-22T02:12:52.286Z,100967.09
2024-04-22T02:15:20.341Z,100960.54
2024-04-22T02:17:48.477Z,100954.96
2024-04-22T02:20:16.611Z,100957.74
2024-04-22T02:22:44.441Z,100962.58
2024-04-22T02:25:12.363Z,100965.84
2024-04-22T02:27:40.391Z,100969.42
2024-04-22T02:30:08.485Z,100976.12
2024-04-22T02:32:36.416Z,100987.93
2024-04-22T02:35:04.530Z,100992.39
2024-04-22T02:37:32.410Z,100998.76
2024-04-22T02:40:00.325Z,101002.83
2024-04-22T02:42:28.209Z,101009.71
2024-04-22T02:44:56.055Z,101006.05
2024-04-22T02:47:23.893Z,101005.68
2024-04-22T02:49:51.735Z,101003.45
2024-04-22T02:52:19.657Z,101001.45
2024-04-22T02:54:47.485Z,100999.71
2024-04-22T02:57:15.285Z,101003.05
2024-04-22T02:59:43.203Z,101004.23
2024-04-22T03:02:11.284Z,101003.12
2024-04-22T03:04:39.097Z,101008.52
2024-04-22T03:07:08.617Z,101008.38
2024-04-22T03:09:40.780Z,101002.27
2024-04-22T03:12:08.997Z,101004.30
2024-04-22T03:14:37.166Z,101000.20
2024-04-22T03:17:05.315Z,101000.04
2024-04-22T03:19:33.258Z,100999.66
2024-04-22T03:22:01.118Z,100999.23
2024-04-22T03:24:28.947Z,101004.97
2024-04-22T03:26:56.899Z,101005.47
2024-04-22T03:29:25.015Z,101006.22
2024-04-22T03:31:52.932Z,101005.55
2024-04-22T03:34:20.908Z,101008.69
2024-04-22T03:36:48.788Z,101012.36
2024-04-22T03:39:16.593Z,101013.66
2024-04-22T03:41:44.397Z,101020.36
2024-04-22T03:44:12.282Z,101025.30
2024-04-22T03:46:58.759Z,101024.23
2024-04-22T03:49:45.072Z,101025.30
2024-04-22T03:52:13.010Z,101027.84
2024-04-22T03:54:40.933Z,101031.91
2024-04-22T03:57:08.728Z,101036.09
2024-04-22T03:59:36.751Z,101038.85
2024-04-22T04:02:05.068Z,101042.23
2024-04-22T04:04:33.047Z,101044.69
2024-04-22T04:07:01.018Z,101047.63
2024-04-22T04:09:28.916Z,101051.47
2024-04-22T04:11:56.858Z,101056.85
2024-04-22T04:14:24.891Z,101062.42
2024-04-22T04:16:52.908Z,101065.71
2024-04-22T04:19:21.369Z,101069.25
2024-04-22T04:21:49.308Z,101068.41
2024-04-22T04:24:18.993Z,101074.81
2024-04-22T04:26:46.909Z,101078.60
2024-04-22T04:29:14.872Z,101079.83
2024-04-22T04:31:42.846Z,101082.55
2024-04-22T04:34:10.942Z,101083.89
2024-04-22T04:36:38.813Z,101085.71
2024-04-22T04:39:06.703Z,101085.02
2024-04-22T04:41:34.623Z,101085.98
2024-04-22T04:44:02.541Z,101088.94
2024-04-22T04:46:30.454Z,101090.02
2024-04-22T04:48:58.268Z,101092.48
2024-04-22T04:51:26.135Z,101094.54
2024-04-22T04:53:54.095Z,101103.41
2024-04-22T04:56:23.932Z,101113.52
2024-04-22T04:58:53.224Z,101116.13
2024-04-22T05:01:21.519Z,101119.80
2024-04-22T05:03:49.578Z,101122.91
2024-04-22T05:06:17.375Z,101132.17
2024-04-22T05:08:45.258Z,101140.42
2024-04-22T05:11:13.174Z,101145.40
2024-04-22T05:13:41.175Z,101147.86
2024-04-22T05:16:09.211Z,101147.25
2024-04-22T05:18:39.188Z,101145.04
2024-04-22T05:21:08.079Z,101149.66
2024-04-22T05:23:36.039Z,101149.67
2024-04-22T05:26:04.237Z,101145.61
2024-04-22T05:28:32.203Z,101148.80
2024-04-22T05:31:00.428Z,101149.98
2024-04-22T05:33:47.283Z,101149.61
2024-04-22T05:36:16.168Z,101150.73
2024-04-22T05:38:44.851Z,101154.79
2024-04-22T05:41:12.934Z,101158.63
2024-04-22T05:43:40.995Z,101161.27
2024-04-22T05:46:09.734Z,101166.59
2024-04-22T05:48:38.023Z,101164.38
2024-04-22T05:51:06.109Z,101160.77
2024-04-22T05:53:34.164Z,101160.14
2024-04-22T05:56:02.040Z,101161.52
2024-04-22T05:58:29.976Z,101163.65
2024-04-22T06:00:59.423Z,101165.27
2024-04-22T06:03:27.357Z,101169.73
2024-04-22T06:05:55.212Z,101173.77
2024-04-22T06:08:23.792Z,101176.52
2024-04-22T06:10:59.777Z,101181.59
2024-04-22T06:13:28.318Z,101184.35
2024-04-22T06:15:56.311Z,101188.07
2024-04-22T06:18:24.189Z,101199.33
2024-04-22T06:20:52.108Z,101200.98
2024-04-22T06:23:20.690Z,101203.67
2024-04-22T06:25:48.774Z,101207.20
2024-04-22T06:28:17.063Z,101211.52
2024-04-22T06:30:46.012Z,101214.45
2024-04-22T06:33:13.952Z,101218.79
2024-04-22T06:35:42.111Z,101227.79
2024-04-22T06:38:12.390Z,101228.36
2024-04-22T06:40:42.875Z,101232.34
2024-04-22T06:43:11.726Z,101237.73
2024-04-22T06:45:40.142Z,101241.09
2024-04-22T06:48:08.363Z,101240.90
2024-04-22T06:50:36.717Z,101245.97
2024-04-22T06:53:04.828Z,101243.35
2024-04-22T06:55:32.734Z,101251.27
2024-04-22T06:58:00.669Z,101252.70
2024-04-22T07:00:31.519Z,101254.07
2024-04-22T07:02:59.530Z,101259.04
2024-04-22T07:05:27.844Z,101268.27
2024-04-22T07:07:56.707Z,101273.84
2024-04-22T07:10:24.660Z,101280.16
2024-04-22T07:12:52.692Z,101283.34
2024-04-22T07:15:21.832Z,101289.41
2024-04-22T07:17:52.006Z,101293.52
2024-04-22T07:20:20.006Z,101290.56
2024-04-22T07:22:47.880Z,101295.34
2024-04-22T07:25:17.942Z,101299.91
2024-04-22T07:27:46.202Z,101305.84
2024-04-22T07:30:17.361Z,101312.98
2024-04-22T07:32:46.204Z,101318.17
2024-04-22T07:35:18.526Z,101314.14
2024-04-22T07:37:47.929Z,101311.62
2024-04-22T07:40:20.774Z,101305.38
2024-04-22T07:42:50.945Z,101302.93
2024-04-22T07:45:24.268Z,101300.84
2024-04-22T07:47:55.370Z,101300.23
2024-04-22T07:50:24.560Z,101302.84
2024-04-22T07:52:53.504Z,101304.14
2024-04-22T07:55:21.845Z,101314.12
2024-04-22T07:57:50.659Z,101319.69
2024-04-22T08:00:20.659Z,101323.16
2024-04-22T08:02:55.694Z,101313.76
2024-04-22T08:05:26.741Z,101309.67
2024-04-22T08:08:00.439Z,101307.02
2024-04-22T08:10:31.830Z,101300.57
2024-04-22T08:13:04.553Z,101300.06
2024-04-22T08:15:32.393Z,101297.93
2024-04-22T08:18:03.570Z,101297.00
2024-04-22T08:20:38.765Z,101294.40
2024-04-22T08:23:07.650Z,101289.47
2024-04-22T08:25:35.965Z,101293.81
2024-04-22T08:28:04.436Z,101286.59
2024-04-22T08:30:33.305Z,101286.80
2024-04-22T08:33:02.355Z,101291.23
2024-04-22T08:35:30.524Z,101288.32
2024-04-22T08:37:58.471Z,101293.67
2024-04-22T08:40:27.189Z,101296.02
2024-04-22T08:42:57.386Z,101294.18
2024-04-22T08:45:31.383Z,101292.36
2024-04-22T08:51:25.973Z,101294.16
2024-04-22T08:54:16.681Z,101295.91
2024-04-22T08:56:49.417Z,101294.10
2024-04-22T08:59:30.038Z,101296.84
2024-04-22T09:02:07.076Z,101296.02
2024-04-22T09:04:35.443Z,101295.83
2024-04-22T09:07:07.295Z,101296.24
2024-04-22T09:09:46.978Z,101290.30
2024-04-22T09:12:26.485Z,101289.61
2024-04-22T09:15:01.831Z,101286.56
2024-04-22T09:17:30.533Z,101283.69
2024-04-22T09:19:59.849Z,101280.81
2024-04-22T09:22:27.761Z,101279.27
2024-04-22T09:24:55.660Z,101283.10
2024-04-22T09:27:27.850Z,101277.40
2024-04-22T09:29:58.027Z,101277.05
2024-04-22T09:32:26.204Z,101278.91
2024-04-22T09:34:54.604Z,101283.02
2024-04-22T09:37:23.872Z,101281.96
2024-04-22T09:39:51.885Z,101280.78
2024-04-22T09:42:19.779Z,101279.16
2024-04-22T09:44:50.336Z,101279.89
2024-04-22T09:47:19.033Z,101280.83
2024-04-22T09:49:48.072Z,101280.48
2024-04-22T09:52:16.125Z,101276.91
2024-04-22T09:54:47.678Z,101280.56
2024-04-22T09:57:17.855Z,101279.10
2024-04-22T09:59:45.814Z,101282.44
2024-04-22T10:02:13.896Z,101282.08
2024-04-22T10:04:41.899Z,101280.66
2024-04-22T10:07:10.312Z,101283.81
2024-04-22T10:09:40.578Z,101284.53
2024-04-22T10:12:09.620Z,101290.05
2024-04-22T10:14:37.664Z,101289.70
2024-04-22T10:17:07.801Z,101289.84
2024-04-22T10:19:36.232Z,101290.65
2024-04-22T10:22:07.922Z,101291.20
2024-04-22T10:24:39.566Z,101291.38
2024-04-22T10:27:11.925Z,101293.18
2024-04-22T10:29:43.298Z,101294.70
2024-04-22T10:32:11.434Z,101296.48
2024-04-22T10:34:45.001Z,101294.69
2024-04-22T10:37:14.500Z,101293.11
2024-04-22T10:39:47.402Z,101304.30
2024-04-22T10:42:17.106Z,101302.04
2024-04-22T10:44:46.004Z,101305.14
2024-04-22T10:47:13.926Z,101302.14
2024-04-22T10:49:44.656Z,101305.48
2024-04-22T10:52:15.081Z,101309.27
2024-04-22T10:54:43.882Z,101312.21
2024-04-22T10:57:14.851Z,101314.69
2024-04-22T10:59:42.692Z,101313.80
2024-04-22T11:02:14.283Z,101317.13
2024-04-22T11:04:45.201Z,101320.63
2024-04-22T11:07:17.299Z,101321.88
2024-04-22T11:09:45.221Z,101320.77
2024-04-22T11:12:15.777Z,101320.08
2024-04-22T11:14:44.574Z,101319.88
2024-04-22T11:17:14.185Z,101321.84
2024-04-22T11:19:42.053Z,101319.64
2024-04-22T11:22:10.256Z,101321.80
2024-04-22T11:24:38.715Z,101327.45
2024-04-22T11:27:06.653Z,101322.19
2024-04-22T11:29:34.902Z,101323.30
2024-04-22T11:32:06.416Z,101321.14
2024-04-22T11:34:34.809Z,101325.19
2024-04-22T11:37:03.544Z,101319.77
2024-04-22T11:39:35.418Z,101320.88
2024-04-22T11:42:06.022Z,101322.14
2024-04-22T11:44:35.365Z,101317.43
2024-04-22T11:47:03.613Z,101321.05
2024-04-22T11:49:33.911Z,101322.30
2024-04-22T11:52:02.211Z,101326.52
2024-04-22T11:54:30.420Z,101324.90
2024-04-22T11:56:58.688Z,101323.17
2024-04-22T11:59:29.273Z,101329.05
2024-04-22T12:01:57.153Z,101328.00
2024-04-22T12:04:25.219Z,101332.03
2024-04-22T12:06:53.308Z,101327.57
2024-04-22T12:09:21.710Z,101322.95
2024-04-22T12:11:49.677Z,101327.36
2024-04-22T12:14:17.569Z,101328.54
2024-04-22T12:16:45.760Z,101327.42
2024-04-22T12:19:13.832Z,101325.79
2024-04-22T12:21:41.854Z,101328.49
2024-04-22T12:24:12.084Z,101328.34
2024-04-22T12:26:40.075Z,101324.86
2024-04-22T12:29:08.121Z,101329.41
2024-04-22T12:31:37.290Z,101326.52
2024-04-22T12:34:12.382Z,101333.56
2024-04-22T12:36:47.169Z,101334.17
2024-04-22T12:39:18.567Z,101336.61
2024-04-22T12:41:46.876Z,101334.52
2024-04-22T12:44:14.732Z,101336.70
2024-04-22T12:47:01.789Z,101341.14
2024-04-22T12:49:54.802Z,101342.73
2024-04-22T12:52:25.907Z,101346.11
2024-04-22T12:54:54.018Z,101352.52
2024-04-22T12:57:21.933Z,101358.55
2024-04-22T12:59:50.866Z,101360.64
2024-04-22T13:02:21.834Z,101366.16
2024-04-22T13:04:51.197Z,101367.63
2024-04-22T13:07:21.774Z,101369.23
2024-04-22T13:09:49.840Z,101379.16
2024-04-22T13:12:18.269Z,101379.03
2024-04-22T13:14:47.025Z,101377.17
2024-04-22T13:17:15.144Z,101377.89
2024-04-22T13:19:46.097Z,101379.91
2024-04-22T13:22:17.553Z,101382.25
2024-04-22T13:24:49.151Z,101379.83
2024-04-22T13:27:17.187Z,101381.61
2024-04-22T13:29:45.330Z,101381.42
2024-04-22T13:32:16.962Z,101382.54
2024-04-22T13:34:45.554Z,101383.27
2024-04-22T13:37:15.104Z,101384.96
2024-04-22T13:39:51.357Z,101384.63
2024-04-22T13:42:19.975Z,101381.86
2024-04-22T13:44:49.593Z,101380.64
2024-04-22T13:47:17.419Z,101382.96
2024-04-22T13:49:46.131Z,101389.54
2024-04-22T13:52:18.535Z,101391.97
2024-04-22T13:54:48.201Z,101390.98
2024-04-22T13:57:18.881Z,101394.25
2024-04-22T13:59:48.226Z,101393.02
2024-04-22T14:02:16.521Z,101394.33
2024-04-22T14:04:45.037Z,101398.55
2024-04-22T14:07:15.811Z,101402.69
2024-04-22T14:09:44.121Z,101407.91
2024-04-22T14:12:17.132Z,101411.98
2024-04-22T14:14:45.050Z,101411.67
2024-04-22T14:17:13.011Z,101414.53
2024-04-22T14:19:42.461Z,101414.15
2024-04-22T14:22:10.474Z,101420.55
2024-04-22T14:24:38.860Z,101420.59
2024-04-22T14:27:07.095Z,101421.48
2024-04-22T14:29:35.199Z,101422.30
2024-04-22T14:32:03.896Z,101424.69
2024-04-22T14:34:31.781Z,101427.81
2024-04-22T14:37:00.255Z,101429.44
2024-04-22T14:39:29.640Z,101433.42
2024-04-22T14:41:58.726Z,101434.34
2024-04-22T14:44:26.917Z,101435.07
2024-04-22T14:46:54.960Z,101437.78
2024-04-22T14:49:22.996Z,101441.39
2024-04-22T14:51:50.917Z,101439.02
2024-04-22T14:54:18.869Z,101441.27
2024-04-22T14:56:46.851Z,101438.13
2024-04-22T14:59:14.734Z,101441.95
2024-04-22T15:01:42.680Z,101443.35
2024-04-22T15:04:11.394Z,101447.10
2024-04-22T15:06:39.301Z,101447.86
2024-04-22T15:09:07.313Z,101454.86
2024-04-22T15:11:35.297Z,101449.56
2024-04-22T15:14:03.659Z,101448.17
2024-04-22T15:16:32.594Z,101453.09
2024-04-22T15:19:00.580Z,101449.34
2024-04-22T15:21:28.502Z,101455.13
2024-04-22T15:23:56.473Z,101460.27
2024-04-22T15:26:24.889Z,101453.33
2024-04-22T15:28:52.988Z,101451.02
2024-04-22T15:31:21.029Z,101452.11
2024-04-22T15:33:49.064Z,101452.66
2024-04-22T15:36:17.447Z,101457.71
2024-04-22T15:38:46.184Z,101465.64
2024-04-22T15:41:14.158Z,101466.98
2024-04-22T15:43:43.988Z,101468.54
2024-04-22T15:46:12.548Z,101466.49
2024-04-22T15:48:40.520Z,101465.26
2024-04-22T15:51:08.574Z,101458.63
2024-04-22T15:53:36.416Z,101465.71
2024-04-22T15:56:05.140Z,101465.23
2024-04-22T15:58:33.587Z,101464.20
2024-04-22T16:01:01.518Z,101465.23
2024-04-22T16:03:31.929Z,101463.87
2024-04-22T16:06:00.057Z,101465.23
2024-04-22T16:08:29.527Z,101462.87
2024-04-22T16:10:58.451Z,101468.97
2024-04-22T16:13:26.436Z,101467.17
2024-04-22T16:15:54.538Z,101468.33
2024-04-22T16:18:22.796Z,101469.07
2024-04-22T16:20:56.794Z,101469.96
2024-04-22T16:23:32.818Z,101468.63
2024-04-22T16:26:00.859Z,101467.08
2024-04-22T16:28:29.032Z,101471.66
2024-04-22T16:30:56.997Z,101471.88
2024-04-22T16:33:27.165Z,101475.17
2024-04-22T16:35:55.007Z,101479.13
2024-04-22T16:38:22.885Z,101478.23
2024-04-22T16:40:50.821Z,101483.69
2024-04-22T16:43:21.070Z,101486.65
2024-04-22T16:45:49.451Z,101487.04
2024-04-22T16:48:20.826Z,101489.19
2024-04-22T16:50:51.954Z,101493.98
2024-04-22T16:53:19.789Z,101493.83
2024-04-22T16:55:47.671Z,101494.94
2024-04-22T16:58:15.530Z,101499.56
2024-04-22T17:00:43.379Z,101497.96
2024-04-22T17:03:11.329Z,101500.77
2024-04-22T17:05:39.383Z,101499.27
2024-04-22T17:08:07.332Z,101497.25
2024-04-22T17:10:35.167Z,101500.01
2024-04-22T17:13:03.026Z,101502.36
2024-04-22T17:15:30.971Z,101508.30
2024-04-22T17:17:58.985Z,101506.73
2024-04-22T17:20:26.964Z,101511.55
2024-04-22T17:22:54.845Z,101516.54
2024-04-22T17:25:22.861Z,101514.98
2024-04-22T17:27:51.117Z,101516.58
2024-04-22T17:30:18.983Z,101518.24
2024-04-22T17:32:46.853Z,101520.45
2024-04-22T17:35:14.835Z,101522.36
2024-04-22T17:37:42.893Z,101527.98
2024-04-22T17:40:10.870Z,101530.42
2024-04-22T17:42:38.746Z,101536.15
2024-04-22T17:45:06.773Z,101540.39
2024-04-22T17:47:34.654Z,101545.95
2024-04-22T17:50:02.705Z,101547.35
2024-04-22T17:52:30.611Z,101550.34
2024-04-22T17:54:58.463Z,101555.02
2024-04-22T17:57:26.785Z,101555.98
2024-04-22T17:59:54.814Z,101564.66
2024-04-22T18:02:22.827Z,101570.52
2024-04-22T18:04:50.748Z,101572.82
2024-04-22T18:07:18.614Z,101576.48
2024-04-22T18:09:46.647Z,101576.17
2024-04-22T18:12:14.525Z,101578.30
2024-04-22T18:14:43.567Z,101577.80
2024-04-22T18:17:12.798Z,101581.77
2024-04-22T18:19:40.816Z,101583.52
2024-04-22T18:22:14.116Z,101584.67
2024-04-22T18:24:45.705Z,101585.34
2024-04-22T18:27:13.587Z,101588.70
2024-04-22T18:29:41.390Z,101591.47
2024-04-22T18:32:09.262Z,101591.55
2024-04-22T18:34:38.171Z,101590.44
2024-04-22T18:37:06.031Z,101593.67
2024-04-22T18:39:34.571Z,101595.33
2024-04-22T18:42:02.535Z,101598.84
2024-04-22T18:44:30.907Z,101600.33
2024-04-22T18:46:58.815Z,101600.00
2024-04-22T18:49:26.809Z,101602.16
2024-04-22T18:51:54.643Z,101605.25
2024-04-22T18:54:22.529Z,101604.27
2024-04-22T18:56:50.319Z,101605.70
2024-04-22T18:59:19.447Z,101605.32
2024-04-22T19:01:47.304Z,101604.00
2024-04-22T19:04:16.212Z,101606.41
2024-04-22T19:06:44.617Z,101605.15
2024-04-22T19:09:12.495Z,101609.02
2024-04-22T19:11:40.379Z,101607.29
2024-04-22T19:14:08.345Z,101606.48
2024-04-22T19:16:36.163Z,101606.39
2024-04-22T19:19:04.313Z,101606.09
2024-04-22T19:21:35.095Z,101610.61
2024-04-22T19:24:03.696Z,101608.45
2024-04-22T19:26:31.495Z,101616.84
2024-04-22T19:28:59.449Z,101619.84
2024-04-22T19:31:27.461Z,101619.73
2024-04-22T19:33:55.538Z,101622.77
2024-04-22T19:36:23.433Z,101626.70
2024-04-22T19:38:51.290Z,101626.71
2024-04-22T19:41:19.146Z,101625.64
2024-04-22T19:43:47.105Z,101626.11
2024-04-22T19:46:15.535Z,101626.48
2024-04-22T19:48:43.412Z,101628.63
2024-04-22T19:51:11.257Z,101629.39
2024-04-22T19:53:39.194Z,101629.26
2024-04-22T19:56:09.923Z,101629.62
2024-04-22T19:58:37.817Z,101627.00
2024-04-22T20:01:05.721Z,101628.61
2024-04-22T20:03:34.473Z,101625.55
2024-04-22T20:06:02.554Z,101623.52
2024-04-22T20:08:30.701Z,101626.92
2024-04-22T20:10:58.602Z,101629.64
2024-04-22T20:13:26.543Z,101627.90
2024-04-22T20:16:05.016Z,101632.38
2024-04-22T20:18:44.024Z,101637.84
2024-04-22T20:21:12.035Z,101639.20
2024-04-22T20:23:40.474Z,101640.63
2024-04-22T20:26:08.301Z,101640.80
2024-04-22T20:28:36.207Z,101647.10
2024-04-22T20:31:04.339Z,101640.57
2024-04-22T20:33:32.316Z,101644.10
2024-04-22T20:36:00.278Z,101642.61
2024-04-22T20:38:28.183Z,101642.24
2024-04-22T20:40:57.774Z,101648.53
2024-04-22T20:43:26.937Z,101649.63
2024-04-22T20:46:00.604Z,101654.32
2024-04-22T20:48:31.769Z,101650.19
2024-04-22T20:51:00.704Z,101651.40
2024-04-22T20:53:28.806Z,101651.86
2024-04-22T20:56:03.341Z,101656.92
2024-04-22T20:58:37.203Z,101656.95
2024-04-22T21:01:05.990Z,101659.84
2024-04-22T21:03:34.585Z,101663.75
2024-04-22T21:06:04.344Z,101665.62
2024-04-22T21:08:32.776Z,101665.52
2024-04-22T21:11:02.598Z,101669.67
2024-04-22T21:14:03.397Z,101670.40
2024-04-22T21:16:31.389Z,101675.46
2024-04-22T21:19:07.554Z,101677.95
2024-04-22T21:21:42.940Z,101680.90
2024-04-22T21:24:10.685Z,101680.23
2024-04-22T21:26:38.488Z,101683.59
2024-04-22T21:29:06.400Z,101690.52
2024-04-22T21:31:34.230Z,101697.86
2024-04-22T21:36:32.886Z,101701.47
2024-04-22T21:39:00.748Z,101703.70
2024-04-22T21:41:29.069Z,101705.06
2024-04-22T21:43:56.927Z,101702.02
2024-04-22T21:46:24.944Z,101706.63
2024-04-22T21:48:53.010Z,101708.30
2024-04-22T21:51:20.821Z,101707.86
2024-04-22T21:53:48.751Z,101708.66
2024-04-22T21:56:19.584Z,101708.13
2024-04-22T21:59:25.786Z,101708.05
2024-04-22T22:02:31.859Z,101703.94
2024-04-22T22:05:37.791Z,101706.89
2024-04-22T22:08:09.894Z,101706.46
2024-04-22T22:10:39.877Z,101708.59
2024-04-22T22:13:08.022Z,101709.73
2024-04-22T22:15:36.010Z,101705.57
2024-04-22T22:18:04.221Z,101704.65
2024-04-22T22:20:32.147Z,101704.38
2024-04-22T22:23:00.073Z,101707.14
2024-04-22T22:25:28.241Z,101709.23
2024-04-22T22:27:56.090Z,101704.50
2024-04-22T22:30:23.927Z,101700.33
2024-04-22T22:32:51.947Z,101701.24
2024-04-22T22:35:19.898Z,101707.00
2024-04-22T22:37:47.813Z,101708.73
2024-04-22T22:40:15.713Z,101711.01
2024-04-22T22:42:48.943Z,101705.70
2024-04-22T22:45:17.506Z,101706.64
2024-04-22T22:47:45.335Z,101711.19
2024-04-22T22:50:13.384Z,101712.73
2024-04-22T22:52:41.241Z,101712.80
2024-04-22T22:55:09.091Z,101715.64
2024-04-22T22:57:36.988Z,101717.48
2024-04-22T23:00:05.548Z,101714.33
2024-04-22T23:02:33.396Z,101718.98
2024-04-22T23:05:01.406Z,101716.44
2024-04-22T23:07:29.352Z,101714.13
2024-04-22T23:09:57.255Z,101715.80
2024-04-22T23:12:25.233Z,101710.98
2024-04-22T23:14:53.130Z,101712.77
2024-04-22T23:17:21.019Z,101712.50
2024-04-22T23:19:48.913Z,101710.29
2024-04-22T23:22:19.304Z,101711.59
2024-04-22T23:24:47.120Z,101711.38
2024-04-22T23:27:16.842Z,101706.29
2024-04-22T23:29:46.221Z,101712.39
2024-04-22T23:32:14.058Z,101712.23
2024-04-22T23:34:42.024Z,101710.71
2024-04-22T23:37:09.876Z,101712.45
2024-04-22T23:39:37.680Z,101709.55
2024-04-22T23:42:06.312Z,101707.63
2024-04-22T23:44:34.288Z,101706.71
2024-04-22T23:47:02.338Z,101708.37
2024-04-22T23:49:30.346Z,101711.85
2024-04-22T23:51:58.568Z,101714.16
2024-04-22T23:54:26.417Z,101717.52
2024-04-22T23:57:01.720Z,101721.98
2024-04-22T23:59:30.459Z,101721.60
